^^

Nearby METAR Reports

 

EGHH - Bournemouth Airp, United Kingdom
Distance from station: S 10mi, 17km
Updated: 30/03/2020 19:20
Partly cloudy
Partly cloudy
 Wind from NNE
Wind: NNE 13 mph , 20 km/h
Temperature: 8°C
Wind Chill: 4°C
Dew Point: 3°C
Humidity: 71%
Barometer: 1031 hPa
Clouds: Partly cloudy
Visibility: 6 miles , 10 km
Cloud details: Partly cloudy 1494 m
2020/03/30 18:20 EGHH 301820Z 03011KT 9999 SCT049 08/03 Q1031
EGDM - Boscombe Down, United Kingdom
Distance from station: N 16mi, 26km
Updated: 30/03/2020 18:50
Overcast
Overcast
 Wind from NNE
Wind: NNE 21 mph , 33 km/h
Temperature: 7°C
Wind Chill: 3°C
Dew Point: 2°C
Humidity: 71%
Barometer: 1031 hPa
Clouds: Overcast
Visibility: 6 miles , 10 km
Cloud details: Overcast 1829 m
2020/03/30 17:50 EGDM 301750Z AUTO 03018KT 9999 OVC060/// 07/02 Q1031
 
EGVP - Middle Wallop, United Kingdom
Distance from station: NE 17mi, 27km
Updated: 30/03/2020 18:50
Mostly cloudy
Mostly cloudy
 Wind from NNE
Wind: NNE 13 mph , 20 km/h
Temperature: 8°C
Wind Chill: 4°C
Dew Point: 2°C
Humidity: 66%
Barometer: 1031 hPa
Clouds: Mostly cloudy
Visibility: 6 miles , 10 km
Cloud details: Mostly cloudy 1524 m
2020/03/30 17:50 EGVP 301750Z AUTO 03011KT 9999 BKN050/// 08/02 Q1031
EGHI - Southampton Wx C, United Kingdom
Distance from station: E 19mi, 31km
Updated: 30/03/2020 13:20
NOT Current
Partly cloudy
Partly cloudy
 Wind from N
Wind: N 14 mph , 22 km/h
Temperature: 8°C
Wind Chill: 4°C
Dew Point: 2°C
Humidity: 66%
Barometer: 1034 hPa
Clouds: Partly cloudy
Visibility: 6 miles , 10 km
Cloud details: Partly cloudy 792 m
2020/03/30 12:20 EGHI 301220Z 01012KT 340V040 9999 SCT026 08/02 Q1034
 
EGDY - Yeovilton (navy), United Kingdom
Distance from station: W 36mi, 58km
Updated: 30/03/2020 19:24
Mostly cloudy
Mostly cloudy
 Wind from NNE
Wind: NNE 14 mph , 22 km/h
Temperature: 7°C
Wind Chill: 4°C
Dew Point: 3°C
Humidity: 76%
Barometer: 1032 hPa
Clouds: Mostly cloudy
Visibility: 6 miles , 10 km
Cloud details: Few Clouds 1219 m
Mostly cloudy 1676 m
2020/03/30 18:24 EGDY 301824Z 02012KT 9999 FEW040 BKN055 07/03 Q1032 TEMPO SCT022 RMK BLU TMEPO WHT
EGUO - Colerne Raf, United Kingdom
Distance from station: NNW 41mi, 66km
Updated: 14/02/2019 22:50
NOT Current
Clear
Clear
 Wind from ENE
Wind: ENE 1 mph , 2 km/h
Temperature: 1°C
Dew Point: 0°C
Humidity: 93%
Barometer: 1029 hPa
Summary: Clear
Visibility: greater than 7 miles , 10 km
2019/02/14 22:50 EGUO 142250Z 06001KT CAVOK 01/00 Q1029 BLU NOSIG
 
EGVO - Odiham Raf, United Kingdom
Distance from station: ENE 42mi, 68km
Updated: 30/03/2020 19:26
Clear
Clear
 Wind from NNE
Wind: NNE 14 mph , 22 km/h
Temperature: 8°C
Wind Chill: 4°C
Dew Point: 1°C
Humidity: 62%
Barometer: 1031 hPa
Summary: Clear
Visibility: greater than 7 miles , 10 km
2020/03/30 18:26 EGVO 301826Z 02012KT CAVOK 08/01 Q1031 NOSIG RMK BLU BLU
EGGD - Bristol/Lulsgate, United Kingdom
Distance from station: NW 50mi, 81km
Updated: 30/03/2020 19:20
Mostly cloudy
Mostly cloudy
 Wind from NNE
Wind: NNE 12 mph , 19 km/h
Temperature: 6°C
Wind Chill: 3°C
Dew Point: 3°C
Humidity: 81%
Barometer: 1032 hPa
Clouds: Mostly cloudy
Visibility: 6 miles , 10 km
Cloud details: Mostly cloudy 610 m
2020/03/30 18:20 EGGD 301820Z AUTO 03010KT 9999 BKN020 06/03 Q1032